sensor_id;sensor_type;location;lat;lon;timestamp;P1;durP1;ratioP1;P2;durP2;ratioP2
31347;SDS011;21711;49.708;18.568;2023-06-22T00:01:21;12.65;;;5.47;;
31347;SDS011;21711;49.708;18.568;2023-06-22T00:03:49;11.45;;;5.00;;
31347;SDS011;21711;49.708;18.568;2023-06-22T00:06:16;12.57;;;5.38;;
31347;SDS011;21711;49.708;18.568;2023-06-22T00:08:44;12.93;;;5.65;;
31347;SDS011;21711;49.708;18.568;2023-06-22T00:11:11;14.48;;;5.80;;
31347;SDS011;21711;49.708;18.568;2023-06-22T00:13:39;14.80;;;6.20;;
31347;SDS011;21711;49.708;18.568;2023-06-22T00:16:06;11.25;;;6.07;;
31347;SDS011;21711;49.708;18.568;2023-06-22T00:18:33;16.45;;;6.45;;
31347;SDS011;21711;49.708;18.568;2023-06-22T00:21:01;11.55;;;6.22;;
31347;SDS011;21711;49.708;18.568;2023-06-22T00:23:28;13.65;;;6.50;;
31347;SDS011;21711;49.708;18.568;2023-06-22T00:26:00;13.18;;;5.43;;
31347;SDS011;21711;49.708;18.568;2023-06-22T00:28:28;14.85;;;6.43;;
31347;SDS011;21711;49.708;18.568;2023-06-22T00:30:55;16.48;;;6.43;;
31347;SDS011;21711;49.708;18.568;2023-06-22T00:33:24;13.75;;;5.97;;
31347;SDS011;21711;49.708;18.568;2023-06-22T00:35:52;14.60;;;7.18;;
31347;SDS011;21711;49.708;18.568;2023-06-22T00:38:20;19.55;;;6.50;;
31347;SDS011;21711;49.708;18.568;2023-06-22T00:40:47;12.98;;;6.80;;
31347;SDS011;21711;49.708;18.568;2023-06-22T00:43:15;13.60;;;7.43;;
31347;SDS011;21711;49.708;18.568;2023-06-22T00:45:42;12.82;;;6.78;;
31347;SDS011;21711;49.708;18.568;2023-06-22T00:48:10;17.38;;;7.20;;
31347;SDS011;21711;49.708;18.568;2023-06-22T00:50:40;13.52;;;6.30;;
31347;SDS011;21711;49.708;18.568;2023-06-22T00:53:08;9.65;;;6.60;;
31347;SDS011;21711;49.708;18.568;2023-06-22T00:55:41;14.23;;;6.90;;
31347;SDS011;21711;49.708;18.568;2023-06-22T00:58:12;12.00;;;7.20;;
31347;SDS011;21711;49.708;18.568;2023-06-22T01:00:40;13.43;;;7.45;;
31347;SDS011;21711;49.708;18.568;2023-06-22T01:03:08;14.63;;;6.95;;
31347;SDS011;21711;49.708;18.568;2023-06-22T01:05:37;22.92;;;7.18;;
31347;SDS011;21711;49.708;18.568;2023-06-22T01:11:52;16.95;;;6.43;;
31347;SDS011;21711;49.708;18.568;2023-06-22T01:14:32;12.85;;;7.00;;
31347;SDS011;21711;49.708;18.568;2023-06-22T01:17:11;10.18;;;6.57;;
31347;SDS011;21711;49.708;18.568;2023-06-22T01:19:54;13.93;;;7.13;;
31347;SDS011;21711;49.708;18.568;2023-06-22T01:22:28;12.90;;;6.30;;
31347;SDS011;21711;49.708;18.568;2023-06-22T01:27:51;14.57;;;7.20;;
31347;SDS011;21711;49.708;18.568;2023-06-22T01:30:29;10.57;;;6.32;;
31347;SDS011;21711;49.708;18.568;2023-06-22T01:33:02;11.43;;;6.55;;
31347;SDS011;21711;49.708;18.568;2023-06-22T01:35:32;17.17;;;7.32;;
31347;SDS011;21711;49.708;18.568;2023-06-22T01:38:00;13.45;;;6.53;;
31347;SDS011;21711;49.708;18.568;2023-06-22T01:40:28;22.13;;;7.80;;
31347;SDS011;21711;49.708;18.568;2023-06-22T01:42:56;13.25;;;6.10;;
31347;SDS011;21711;49.708;18.568;2023-06-22T01:45:26;15.07;;;7.22;;
31347;SDS011;21711;49.708;18.568;2023-06-22T01:47:55;14.68;;;7.03;;
31347;SDS011;21711;49.708;18.568;2023-06-22T01:50:23;13.23;;;6.70;;
31347;SDS011;21711;49.708;18.568;2023-06-22T01:52:51;13.23;;;6.55;;
31347;SDS011;21711;49.708;18.568;2023-06-22T01:55:19;13.85;;;6.35;;
31347;SDS011;21711;49.708;18.568;2023-06-22T01:57:48;11.60;;;5.97;;
31347;SDS011;21711;49.708;18.568;2023-06-22T02:00:18;12.48;;;6.45;;
31347;SDS011;21711;49.708;18.568;2023-06-22T02:05:52;15.45;;;6.97;;
31347;SDS011;21711;49.708;18.568;2023-06-22T02:08:36;18.13;;;7.70;;
31347;SDS011;21711;49.708;18.568;2023-06-22T02:11:13;12.15;;;6.88;;
31347;SDS011;21711;49.708;18.568;2023-06-22T02:16:12;10.27;;;6.13;;
31347;SDS011;21711;49.708;18.568;2023-06-22T02:18:47;13.23;;;6.35;;
31347;SDS011;21711;49.708;18.568;2023-06-22T02:21:17;15.70;;;7.60;;
31347;SDS011;21711;49.708;18.568;2023-06-22T02:23:46;14.20;;;6.00;;
31347;SDS011;21711;49.708;18.568;2023-06-22T02:26:15;15.45;;;7.65;;
31347;SDS011;21711;49.708;18.568;2023-06-22T02:31:12;19.10;;;6.97;;
31347;SDS011;21711;49.708;18.568;2023-06-22T02:33:39;16.73;;;7.88;;
31347;SDS011;21711;49.708;18.568;2023-06-22T02:36:07;24.58;;;8.15;;
31347;SDS011;21711;49.708;18.568;2023-06-22T02:38:35;14.40;;;7.35;;
31347;SDS011;21711;49.708;18.568;2023-06-22T02:41:03;14.23;;;7.60;;
31347;SDS011;21711;49.708;18.568;2023-06-22T02:43:30;16.65;;;7.20;;
31347;SDS011;21711;49.708;18.568;2023-06-22T02:45:57;14.18;;;8.13;;
31347;SDS011;21711;49.708;18.568;2023-06-22T02:48:25;12.35;;;7.50;;
31347;SDS011;21711;49.708;18.568;2023-06-22T02:50:52;18.92;;;7.70;;
31347;SDS011;21711;49.708;18.568;2023-06-22T02:53:20;15.95;;;8.15;;
31347;SDS011;21711;49.708;18.568;2023-06-22T02:55:47;13.27;;;7.25;;
31347;SDS011;21711;49.708;18.568;2023-06-22T02:58:15;11.85;;;7.25;;
31347;SDS011;21711;49.708;18.568;2023-06-22T03:00:43;13.93;;;7.45;;
31347;SDS011;21711;49.708;18.568;2023-06-22T03:03:10;16.45;;;8.05;;
31347;SDS011;21711;49.708;18.568;2023-06-22T03:05:38;12.30;;;6.97;;
31347;SDS011;21711;49.708;18.568;2023-06-22T03:08:07;15.88;;;7.03;;
31347;SDS011;21711;49.708;18.568;2023-06-22T03:10:34;15.63;;;7.70;;
31347;SDS011;21711;49.708;18.568;2023-06-22T03:13:02;12.57;;;7.20;;
31347;SDS011;21711;49.708;18.568;2023-06-22T03:15:29;16.85;;;7.50;;
31347;SDS011;21711;49.708;18.568;2023-06-22T03:17:58;15.52;;;8.48;;
31347;SDS011;21711;49.708;18.568;2023-06-22T03:20:25;14.38;;;7.60;;
31347;SDS011;21711;49.708;18.568;2023-06-22T03:22:54;14.77;;;8.07;;
31347;SDS011;21711;49.708;18.568;2023-06-22T03:25:22;21.17;;;7.95;;
31347;SDS011;21711;49.708;18.568;2023-06-22T03:27:49;15.15;;;7.53;;
31347;SDS011;21711;49.708;18.568;2023-06-22T03:30:17;15.65;;;7.90;;
31347;SDS011;21711;49.708;18.568;2023-06-22T03:32:44;14.95;;;7.85;;
31347;SDS011;21711;49.708;18.568;2023-06-22T03:35:13;15.05;;;8.20;;
31347;SDS011;21711;49.708;18.568;2023-06-22T03:37:40;13.52;;;7.43;;
31347;SDS011;21711;49.708;18.568;2023-06-22T03:40:08;13.75;;;8.15;;
31347;SDS011;21711;49.708;18.568;2023-06-22T03:42:36;14.32;;;8.40;;
31347;SDS011;21711;49.708;18.568;2023-06-22T03:45:03;14.20;;;7.68;;
31347;SDS011;21711;49.708;18.568;2023-06-22T03:47:32;13.40;;;7.90;;
31347;SDS011;21711;49.708;18.568;2023-06-22T03:50:00;13.68;;;8.35;;
31347;SDS011;21711;49.708;18.568;2023-06-22T03:52:30;14.07;;;7.95;;
31347;SDS011;21711;49.708;18.568;2023-06-22T03:54:57;14.25;;;6.60;;
31347;SDS011;21711;49.708;18.568;2023-06-22T03:57:25;13.75;;;7.13;;
31347;SDS011;21711;49.708;18.568;2023-06-22T03:59:53;11.80;;;6.72;;
31347;SDS011;21711;49.708;18.568;2023-06-22T04:02:24;13.90;;;7.50;;
31347;SDS011;21711;49.708;18.568;2023-06-22T04:04:52;9.07;;;5.82;;
31347;SDS011;21711;49.708;18.568;2023-06-22T04:07:20;10.93;;;5.65;;
31347;SDS011;21711;49.708;18.568;2023-06-22T04:09:47;12.13;;;6.95;;
31347;SDS011;21711;49.708;18.568;2023-06-22T04:12:14;7.20;;;5.40;;
31347;SDS011;21711;49.708;18.568;2023-06-22T04:14:41;9.85;;;5.28;;
31347;SDS011;21711;49.708;18.568;2023-06-22T04:17:09;9.18;;;6.13;;
31347;SDS011;21711;49.708;18.568;2023-06-22T04:19:36;9.38;;;5.45;;
31347;SDS011;21711;49.708;18.568;2023-06-22T04:22:04;10.13;;;5.50;;
31347;SDS011;21711;49.708;18.568;2023-06-22T04:24:33;8.18;;;5.05;;
31347;SDS011;21711;49.708;18.568;2023-06-22T04:27:00;8.80;;;5.10;;
31347;SDS011;21711;49.708;18.568;2023-06-22T04:29:29;9.18;;;5.70;;
31347;SDS011;21711;49.708;18.568;2023-06-22T04:31:57;16.50;;;4.80;;
31347;SDS011;21711;49.708;18.568;2023-06-22T04:34:25;11.73;;;5.03;;
31347;SDS011;21711;49.708;18.568;2023-06-22T04:36:55;9.32;;;5.10;;
31347;SDS011;21711;49.708;18.568;2023-06-22T04:39:23;8.85;;;5.25;;
31347;SDS011;21711;49.708;18.568;2023-06-22T04:41:50;6.32;;;4.50;;
31347;SDS011;21711;49.708;18.568;2023-06-22T04:44:18;11.63;;;5.00;;
31347;SDS011;21711;49.708;18.568;2023-06-22T04:46:52;6.50;;;4.10;;
31347;SDS011;21711;49.708;18.568;2023-06-22T04:49:35;8.60;;;4.43;;
31347;SDS011;21711;49.708;18.568;2023-06-22T04:52:04;7.65;;;4.93;;
31347;SDS011;21711;49.708;18.568;2023-06-22T04:54:36;8.65;;;4.55;;
31347;SDS011;21711;49.708;18.568;2023-06-22T04:57:06;10.20;;;4.47;;
31347;SDS011;21711;49.708;18.568;2023-06-22T04:59:37;14.38;;;4.93;;
31347;SDS011;21711;49.708;18.568;2023-06-22T05:02:08;9.48;;;3.85;;
31347;SDS011;21711;49.708;18.568;2023-06-22T05:04:36;9.38;;;4.72;;
31347;SDS011;21711;49.708;18.568;2023-06-22T05:07:06;6.80;;;4.40;;
31347;SDS011;21711;49.708;18.568;2023-06-22T05:09:34;7.40;;;5.28;;
31347;SDS011;21711;49.708;18.568;2023-06-22T05:12:02;10.25;;;4.63;;
31347;SDS011;21711;49.708;18.568;2023-06-22T05:14:34;7.32;;;4.47;;
31347;SDS011;21711;49.708;18.568;2023-06-22T05:17:01;7.30;;;4.90;;
31347;SDS011;21711;49.708;18.568;2023-06-22T05:19:30;24.47;;;16.93;;
31347;SDS011;21711;49.708;18.568;2023-06-22T05:22:01;8.43;;;4.95;;
31347;SDS011;21711;49.708;18.568;2023-06-22T05:24:28;11.85;;;6.32;;
31347;SDS011;21711;49.708;18.568;2023-06-22T05:26:56;10.05;;;5.30;;
31347;SDS011;21711;49.708;18.568;2023-06-22T05:29:23;8.43;;;5.15;;
31347;SDS011;21711;49.708;18.568;2023-06-22T05:31:50;11.57;;;6.45;;
31347;SDS011;21711;49.708;18.568;2023-06-22T05:34:18;10.18;;;6.57;;
31347;SDS011;21711;49.708;18.568;2023-06-22T05:36:45;15.35;;;6.70;;
31347;SDS011;21711;49.708;18.568;2023-06-22T05:39:13;13.40;;;8.55;;
31347;SDS011;21711;49.708;18.568;2023-06-22T05:41:41;13.13;;;7.75;;
31347;SDS011;21711;49.708;18.568;2023-06-22T05:44:10;12.38;;;6.85;;
31347;SDS011;21711;49.708;18.568;2023-06-22T05:46:40;16.23;;;7.57;;
31347;SDS011;21711;49.708;18.568;2023-06-22T05:49:13;14.90;;;6.85;;
31347;SDS011;21711;49.708;18.568;2023-06-22T05:51:42;13.50;;;7.28;;
31347;SDS011;21711;49.708;18.568;2023-06-22T05:54:09;13.65;;;7.68;;
31347;SDS011;21711;49.708;18.568;2023-06-22T05:56:40;13.88;;;8.77;;
31347;SDS011;21711;49.708;18.568;2023-06-22T05:59:07;11.45;;;7.20;;
31347;SDS011;21711;49.708;18.568;2023-06-22T06:01:34;17.38;;;8.60;;
31347;SDS011;21711;49.708;18.568;2023-06-22T06:04:03;16.48;;;9.02;;
31347;SDS011;21711;49.708;18.568;2023-06-22T06:06:31;15.57;;;9.85;;
31347;SDS011;21711;49.708;18.568;2023-06-22T06:08:58;14.50;;;9.98;;
31347;SDS011;21711;49.708;18.568;2023-06-22T06:11:26;15.98;;;12.45;;
31347;SDS011;21711;49.708;18.568;2023-06-22T06:13:53;17.17;;;12.57;;
31347;SDS011;21711;49.708;18.568;2023-06-22T06:16:21;13.73;;;10.40;;
31347;SDS011;21711;49.708;18.568;2023-06-22T06:18:49;15.57;;;10.98;;
31347;SDS011;21711;49.708;18.568;2023-06-22T06:21:17;17.67;;;10.35;;
31347;SDS011;21711;49.708;18.568;2023-06-22T06:23:44;17.17;;;10.75;;
31347;SDS011;21711;49.708;18.568;2023-06-22T06:26:12;20.75;;;11.20;;
31347;SDS011;21711;49.708;18.568;2023-06-22T06:28:39;16.38;;;10.88;;
31347;SDS011;21711;49.708;18.568;2023-06-22T06:31:07;18.60;;;11.52;;
31347;SDS011;21711;49.708;18.568;2023-06-22T06:33:36;15.23;;;10.85;;
31347;SDS011;21711;49.708;18.568;2023-06-22T06:36:03;16.10;;;11.50;;
31347;SDS011;21711;49.708;18.568;2023-06-22T06:38:30;14.07;;;11.65;;
31347;SDS011;21711;49.708;18.568;2023-06-22T06:40:59;19.83;;;11.37;;
31347;SDS011;21711;49.708;18.568;2023-06-22T06:43:27;17.20;;;12.02;;
31347;SDS011;21711;49.708;18.568;2023-06-22T06:45:54;16.48;;;11.13;;
31347;SDS011;21711;49.708;18.568;2023-06-22T06:48:21;18.98;;;11.82;;
31347;SDS011;21711;49.708;18.568;2023-06-22T06:50:49;17.67;;;11.13;;
31347;SDS011;21711;49.708;18.568;2023-06-22T06:53:16;13.13;;;10.90;;
31347;SDS011;21711;49.708;18.568;2023-06-22T06:55:44;17.83;;;11.50;;
31347;SDS011;21711;49.708;18.568;2023-06-22T06:58:12;16.85;;;12.82;;
31347;SDS011;21711;49.708;18.568;2023-06-22T07:00:39;18.77;;;12.05;;
31347;SDS011;21711;49.708;18.568;2023-06-22T07:03:08;16.40;;;10.80;;
31347;SDS011;21711;49.708;18.568;2023-06-22T07:05:35;16.75;;;11.90;;
31347;SDS011;21711;49.708;18.568;2023-06-22T07:08:03;17.92;;;13.30;;
31347;SDS011;21711;49.708;18.568;2023-06-22T07:10:30;18.45;;;13.18;;
31347;SDS011;21711;49.708;18.568;2023-06-22T07:12:58;17.10;;;12.23;;
31347;SDS011;21711;49.708;18.568;2023-06-22T07:15:25;18.25;;;12.27;;
31347;SDS011;21711;49.708;18.568;2023-06-22T07:17:52;17.88;;;13.38;;
31347;SDS011;21711;49.708;18.568;2023-06-22T07:20:20;18.73;;;12.05;;
31347;SDS011;21711;49.708;18.568;2023-06-22T07:22:47;15.43;;;13.38;;
31347;SDS011;21711;49.708;18.568;2023-06-22T07:25:15;20.33;;;13.55;;
31347;SDS011;21711;49.708;18.568;2023-06-22T07:27:56;22.83;;;13.40;;
31347;SDS011;21711;49.708;18.568;2023-06-22T07:30:25;17.95;;;13.27;;
31347;SDS011;21711;49.708;18.568;2023-06-22T07:32:54;17.10;;;13.27;;
31347;SDS011;21711;49.708;18.568;2023-06-22T07:35:21;19.38;;;14.57;;
31347;SDS011;21711;49.708;18.568;2023-06-22T07:37:49;16.33;;;14.15;;
31347;SDS011;21711;49.708;18.568;2023-06-22T07:40:16;18.85;;;16.95;;
31347;SDS011;21711;49.708;18.568;2023-06-22T07:42:44;17.98;;;15.68;;
31347;SDS011;21711;49.708;18.568;2023-06-22T07:45:11;19.42;;;15.75;;
31347;SDS011;21711;49.708;18.568;2023-06-22T07:47:39;18.95;;;14.20;;
31347;SDS011;21711;49.708;18.568;2023-06-22T07:50:06;23.60;;;16.23;;
31347;SDS011;21711;49.708;18.568;2023-06-22T07:52:34;18.38;;;14.55;;
31347;SDS011;21711;49.708;18.568;2023-06-22T07:55:01;17.15;;;15.18;;
31347;SDS011;21711;49.708;18.568;2023-06-22T07:57:29;20.85;;;15.20;;
31347;SDS011;21711;49.708;18.568;2023-06-22T08:00:01;19.00;;;16.08;;
31347;SDS011;21711;49.708;18.568;2023-06-22T08:02:42;22.38;;;14.30;;
31347;SDS011;21711;49.708;18.568;2023-06-22T08:05:13;18.58;;;14.85;;
31347;SDS011;21711;49.708;18.568;2023-06-22T08:08:00;18.75;;;13.70;;
31347;SDS011;21711;49.708;18.568;2023-06-22T08:10:28;16.02;;;14.35;;
31347;SDS011;21711;49.708;18.568;2023-06-22T08:12:55;18.38;;;15.15;;
31347;SDS011;21711;49.708;18.568;2023-06-22T08:15:22;19.77;;;15.25;;
31347;SDS011;21711;49.708;18.568;2023-06-22T08:17:50;17.45;;;14.82;;
31347;SDS011;21711;49.708;18.568;2023-06-22T08:20:19;18.40;;;14.18;;
31347;SDS011;21711;49.708;18.568;2023-06-22T08:22:46;22.27;;;14.23;;
31347;SDS011;21711;49.708;18.568;2023-06-22T08:25:14;16.33;;;13.90;;
31347;SDS011;21711;49.708;18.568;2023-06-22T08:27:44;22.35;;;15.70;;
31347;SDS011;21711;49.708;18.568;2023-06-22T08:30:14;20.95;;;15.40;;
31347;SDS011;21711;49.708;18.568;2023-06-22T08:32:42;19.20;;;14.65;;
31347;SDS011;21711;49.708;18.568;2023-06-22T08:35:10;19.38;;;14.57;;
31347;SDS011;21711;49.708;18.568;2023-06-22T08:37:37;16.60;;;14.73;;
31347;SDS011;21711;49.708;18.568;2023-06-22T08:40:07;17.35;;;15.25;;
31347;SDS011;21711;49.708;18.568;2023-06-22T08:42:37;24.15;;;14.68;;
31347;SDS011;21711;49.708;18.568;2023-06-22T08:45:08;17.60;;;15.73;;
31347;SDS011;21711;49.708;18.568;2023-06-22T08:47:36;19.80;;;15.38;;
31347;SDS011;21711;49.708;18.568;2023-06-22T08:50:05;21.02;;;15.65;;
31347;SDS011;21711;49.708;18.568;2023-06-22T08:52:35;20.83;;;14.20;;
31347;SDS011;21711;49.708;18.568;2023-06-22T08:55:04;16.15;;;14.65;;
31347;SDS011;21711;49.708;18.568;2023-06-22T08:57:32;20.52;;;15.40;;
31347;SDS011;21711;49.708;18.568;2023-06-22T08:59:59;18.77;;;16.08;;
31347;SDS011;21711;49.708;18.568;2023-06-22T09:02:27;18.75;;;15.35;;
31347;SDS011;21711;49.708;18.568;2023-06-22T09:04:58;17.35;;;14.30;;
31347;SDS011;21711;49.708;18.568;2023-06-22T09:07:26;16.92;;;13.25;;
31347;SDS011;21711;49.708;18.568;2023-06-22T09:09:53;19.23;;;13.82;;
31347;SDS011;21711;49.708;18.568;2023-06-22T09:12:21;14.70;;;13.27;;
31347;SDS011;21711;49.708;18.568;2023-06-22T09:14:52;14.80;;;13.30;;
31347;SDS011;21711;49.708;18.568;2023-06-22T09:17:20;16.08;;;12.13;;
31347;SDS011;21711;49.708;18.568;2023-06-22T09:19:49;13.32;;;11.52;;
31347;SDS011;21711;49.708;18.568;2023-06-22T09:22:16;13.63;;;12.13;;
31347;SDS011;21711;49.708;18.568;2023-06-22T09:24:44;12.07;;;10.98;;
31347;SDS011;21711;49.708;18.568;2023-06-22T09:27:11;12.60;;;11.32;;
31347;SDS011;21711;49.708;18.568;2023-06-22T09:29:39;12.63;;;11.10;;
31347;SDS011;21711;49.708;18.568;2023-06-22T09:32:06;15.70;;;11.82;;
31347;SDS011;21711;49.708;18.568;2023-06-22T09:34:34;14.68;;;12.70;;
31347;SDS011;21711;49.708;18.568;2023-06-22T09:37:01;13.68;;;12.27;;
31347;SDS011;21711;49.708;18.568;2023-06-22T09:39:29;15.43;;;12.93;;
31347;SDS011;21711;49.708;18.568;2023-06-22T09:41:57;18.55;;;12.95;;
31347;SDS011;21711;49.708;18.568;2023-06-22T09:44:29;13.05;;;11.75;;
31347;SDS011;21711;49.708;18.568;2023-06-22T09:46:56;13.80;;;11.20;;
31347;SDS011;21711;49.708;18.568;2023-06-22T09:49:23;13.48;;;12.02;;
31347;SDS011;21711;49.708;18.568;2023-06-22T09:52:11;11.85;;;10.65;;
31347;SDS011;21711;49.708;18.568;2023-06-22T09:54:39;12.88;;;11.15;;
31347;SDS011;21711;49.708;18.568;2023-06-22T09:57:06;15.43;;;10.73;;
31347;SDS011;21711;49.708;18.568;2023-06-22T09:59:33;12.43;;;11.20;;
31347;SDS011;21711;49.708;18.568;2023-06-22T10:02:01;11.27;;;10.13;;
31347;SDS011;21711;49.708;18.568;2023-06-22T10:04:28;13.73;;;10.60;;
31347;SDS011;21711;49.708;18.568;2023-06-22T10:06:56;13.47;;;12.17;;
31347;SDS011;21711;49.708;18.568;2023-06-22T10:09:23;14.32;;;12.10;;
31347;SDS011;21711;49.708;18.568;2023-06-22T10:11:51;13.50;;;12.30;;
31347;SDS011;21711;49.708;18.568;2023-06-22T10:14:18;14.13;;;12.63;;
31347;SDS011;21711;49.708;18.568;2023-06-22T10:16:47;15.85;;;14.27;;
31347;SDS011;21711;49.708;18.568;2023-06-22T10:21:42;15.45;;;13.93;;
31347;SDS011;21711;49.708;18.568;2023-06-22T10:24:09;14.48;;;13.00;;
31347;SDS011;21711;49.708;18.568;2023-06-22T10:26:37;14.27;;;12.80;;
31347;SDS011;21711;49.708;18.568;2023-06-22T10:29:04;15.55;;;13.43;;
31347;SDS011;21711;49.708;18.568;2023-06-22T10:31:43;15.75;;;13.23;;
31347;SDS011;21711;49.708;18.568;2023-06-22T10:34:10;18.05;;;14.07;;
31347;SDS011;21711;49.708;18.568;2023-06-22T10:36:38;16.17;;;14.43;;
31347;SDS011;21711;49.708;18.568;2023-06-22T10:39:05;18.80;;;14.65;;
31347;SDS011;21711;49.708;18.568;2023-06-22T10:41:33;19.90;;;15.80;;
31347;SDS011;21711;49.708;18.568;2023-06-22T10:44:01;16.33;;;14.65;;
31347;SDS011;21711;49.708;18.568;2023-06-22T10:46:29;16.05;;;14.43;;
31347;SDS011;21711;49.708;18.568;2023-06-22T10:48:56;17.17;;;14.15;;
31347;SDS011;21711;49.708;18.568;2023-06-22T10:51:25;14.85;;;13.27;;
31347;SDS011;21711;49.708;18.568;2023-06-22T10:53:52;15.85;;;13.95;;
31347;SDS011;21711;49.708;18.568;2023-06-22T10:56:20;15.77;;;14.13;;
31347;SDS011;21711;49.708;18.568;2023-06-22T10:58:47;17.50;;;13.65;;
31347;SDS011;21711;49.708;18.568;2023-06-22T11:01:14;16.85;;;14.68;;
31347;SDS011;21711;49.708;18.568;2023-06-22T11:04:00;20.00;;;16.13;;
31347;SDS011;21711;49.708;18.568;2023-06-22T11:06:28;16.25;;;14.50;;
31347;SDS011;21711;49.708;18.568;2023-06-22T11:08:55;18.88;;;14.65;;
31347;SDS011;21711;49.708;18.568;2023-06-22T11:11:32;16.25;;;14.68;;
31347;SDS011;21711;49.708;18.568;2023-06-22T11:13:59;17.00;;;15.18;;
31347;SDS011;21711;49.708;18.568;2023-06-22T11:16:27;21.63;;;15.50;;
31347;SDS011;21711;49.708;18.568;2023-06-22T11:18:54;19.98;;;16.00;;
31347;SDS011;21711;49.708;18.568;2023-06-22T11:21:22;17.42;;;15.57;;
31347;SDS011;21711;49.708;18.568;2023-06-22T11:23:49;17.58;;;14.48;;
31347;SDS011;21711;49.708;18.568;2023-06-22T11:26:17;19.73;;;15.60;;
31347;SDS011;21711;49.708;18.568;2023-06-22T11:28:44;19.20;;;16.20;;
31347;SDS011;21711;49.708;18.568;2023-06-22T11:31:11;18.42;;;15.52;;
31347;SDS011;21711;49.708;18.568;2023-06-22T11:33:52;21.17;;;16.10;;
31347;SDS011;21711;49.708;18.568;2023-06-22T11:36:19;16.65;;;14.85;;
31347;SDS011;21711;49.708;18.568;2023-06-22T11:38:47;17.70;;;14.82;;
31347;SDS011;21711;49.708;18.568;2023-06-22T11:41:15;17.60;;;14.55;;
31347;SDS011;21711;49.708;18.568;2023-06-22T11:43:42;17.13;;;14.40;;
31347;SDS011;21711;49.708;18.568;2023-06-22T11:46:09;16.08;;;14.38;;
31347;SDS011;21711;49.708;18.568;2023-06-22T11:48:37;15.93;;;14.23;;
31347;SDS011;21711;49.708;18.568;2023-06-22T11:51:04;18.02;;;14.20;;
31347;SDS011;21711;49.708;18.568;2023-06-22T11:53:33;19.10;;;15.48;;
31347;SDS011;21711;49.708;18.568;2023-06-22T11:56:01;16.65;;;14.85;;
31347;SDS011;21711;49.708;18.568;2023-06-22T11:58:28;16.65;;;14.43;;
31347;SDS011;21711;49.708;18.568;2023-06-22T12:00:55;18.90;;;15.77;;
31347;SDS011;21711;49.708;18.568;2023-06-22T12:03:23;19.00;;;15.52;;
31347;SDS011;21711;49.708;18.568;2023-06-22T12:05:51;20.33;;;15.77;;
31347;SDS011;21711;49.708;18.568;2023-06-22T12:08:19;18.67;;;15.98;;
31347;SDS011;21711;49.708;18.568;2023-06-22T12:10:46;17.80;;;15.95;;
31347;SDS011;21711;49.708;18.568;2023-06-22T12:13:16;18.35;;;16.33;;
31347;SDS011;21711;49.708;18.568;2023-06-22T12:15:43;24.27;;;15.35;;
31347;SDS011;21711;49.708;18.568;2023-06-22T12:18:11;20.83;;;14.75;;
31347;SDS011;21711;49.708;18.568;2023-06-22T12:23:08;23.80;;;16.10;;
31347;SDS011;21711;49.708;18.568;2023-06-22T12:25:35;19.25;;;15.57;;
31347;SDS011;21711;49.708;18.568;2023-06-22T12:28:03;17.58;;;14.85;;
31347;SDS011;21711;49.708;18.568;2023-06-22T12:30:32;19.40;;;15.98;;
31347;SDS011;21711;49.708;18.568;2023-06-22T12:33:00;19.20;;;16.27;;
31347;SDS011;21711;49.708;18.568;2023-06-22T12:35:27;18.92;;;14.85;;
31347;SDS011;21711;49.708;18.568;2023-06-22T12:37:55;17.95;;;13.82;;
31347;SDS011;21711;49.708;18.568;2023-06-22T12:40:22;15.50;;;13.40;;
31347;SDS011;21711;49.708;18.568;2023-06-22T12:42:50;17.70;;;15.40;;
31347;SDS011;21711;49.708;18.568;2023-06-22T12:45:17;16.90;;;14.70;;
31347;SDS011;21711;49.708;18.568;2023-06-22T12:47:46;16.85;;;14.05;;
31347;SDS011;21711;49.708;18.568;2023-06-22T12:50:16;20.02;;;14.75;;
31347;SDS011;21711;49.708;18.568;2023-06-22T12:52:44;16.20;;;14.32;;
31347;SDS011;21711;49.708;18.568;2023-06-22T12:55:11;19.20;;;15.02;;
31347;SDS011;21711;49.708;18.568;2023-06-22T12:57:38;17.65;;;15.05;;
31347;SDS011;21711;49.708;18.568;2023-06-22T13:00:06;19.13;;;15.30;;
31347;SDS011;21711;49.708;18.568;2023-06-22T13:02:36;21.30;;;14.07;;
31347;SDS011;21711;49.708;18.568;2023-06-22T13:05:04;16.27;;;14.68;;
31347;SDS011;21711;49.708;18.568;2023-06-22T13:07:31;16.00;;;14.20;;
31347;SDS011;21711;49.708;18.568;2023-06-22T13:09:59;17.27;;;13.23;;
31347;SDS011;21711;49.708;18.568;2023-06-22T13:12:26;14.05;;;12.55;;
31347;SDS011;21711;49.708;18.568;2023-06-22T13:14:54;15.35;;;13.32;;
31347;SDS011;21711;49.708;18.568;2023-06-22T13:17:21;15.05;;;13.00;;
31347;SDS011;21711;49.708;18.568;2023-06-22T13:19:49;17.33;;;12.95;;
31347;SDS011;21711;49.708;18.568;2023-06-22T13:22:32;19.88;;;14.80;;
31347;SDS011;21711;49.708;18.568;2023-06-22T13:25:07;15.30;;;13.35;;
31347;SDS011;21711;49.708;18.568;2023-06-22T13:27:39;15.02;;;12.60;;
31347;SDS011;21711;49.708;18.568;2023-06-22T13:30:08;15.77;;;12.73;;
31347;SDS011;21711;49.708;18.568;2023-06-22T13:32:40;12.82;;;11.50;;
31347;SDS011;21711;49.708;18.568;2023-06-22T13:35:09;16.30;;;12.30;;
31347;SDS011;21711;49.708;18.568;2023-06-22T13:37:38;13.55;;;11.73;;
31347;SDS011;21711;49.708;18.568;2023-06-22T13:40:05;14.55;;;12.25;;
31347;SDS011;21711;49.708;18.568;2023-06-22T13:42:34;16.85;;;12.95;;
31347;SDS011;21711;49.708;18.568;2023-06-22T13:45:02;14.25;;;12.75;;
31347;SDS011;21711;49.708;18.568;2023-06-22T13:47:30;13.32;;;11.88;;
31347;SDS011;21711;49.708;18.568;2023-06-22T13:49:58;13.20;;;11.80;;
31347;SDS011;21711;49.708;18.568;2023-06-22T13:52:26;17.38;;;12.50;;
31347;SDS011;21711;49.708;18.568;2023-06-22T13:54:53;13.98;;;12.07;;
31347;SDS011;21711;49.708;18.568;2023-06-22T13:57:21;17.92;;;12.20;;
31347;SDS011;21711;49.708;18.568;2023-06-22T13:59:48;14.38;;;12.13;;
31347;SDS011;21711;49.708;18.568;2023-06-22T14:02:15;14.32;;;11.35;;
31347;SDS011;21711;49.708;18.568;2023-06-22T14:04:43;13.45;;;12.07;;
31347;SDS011;21711;49.708;18.568;2023-06-22T14:07:10;17.45;;;12.25;;
31347;SDS011;21711;49.708;18.568;2023-06-22T14:09:39;15.10;;;12.25;;
31347;SDS011;21711;49.708;18.568;2023-06-22T14:12:07;12.95;;;11.57;;
31347;SDS011;21711;49.708;18.568;2023-06-22T14:14:35;15.48;;;11.48;;
31347;SDS011;21711;49.708;18.568;2023-06-22T14:17:03;15.10;;;12.25;;
31347;SDS011;21711;49.708;18.568;2023-06-22T14:19:31;13.95;;;11.60;;
31347;SDS011;21711;49.708;18.568;2023-06-22T14:21:59;18.08;;;12.10;;
31347;SDS011;21711;49.708;18.568;2023-06-22T14:24:26;21.80;;;11.40;;
31347;SDS011;21711;49.708;18.568;2023-06-22T14:26:56;15.88;;;12.20;;
31347;SDS011;21711;49.708;18.568;2023-06-22T14:29:24;13.93;;;11.40;;
31347;SDS011;21711;49.708;18.568;2023-06-22T14:31:52;12.43;;;10.95;;
31347;SDS011;21711;49.708;18.568;2023-06-22T14:34:20;12.27;;;11.02;;
31347;SDS011;21711;49.708;18.568;2023-06-22T14:36:47;13.82;;;11.25;;
31347;SDS011;21711;49.708;18.568;2023-06-22T14:39:14;13.07;;;10.95;;
31347;SDS011;21711;49.708;18.568;2023-06-22T14:41:42;12.25;;;10.57;;
31347;SDS011;21711;49.708;18.568;2023-06-22T14:44:09;12.82;;;11.40;;